Time;durP1;ratioP1;P1;durP2;ratioP2;P2;SDS_P1;SDS_P2;PMS_P1;PMS_P2;Temp;Humidity;BMP_temperature;BMP_pressure;BME280_temperature;BME280_humidity;BME280_pressure;Samples;Min_cycle;Max_cycle;Signal;HPM_P1;HPM_P2
2022/03/23 00:00:37;;;;;;;4.43;2.45;;;9.00;68.10;;;;;;4964491;28;20145;-79
2022/03/23 00:03:04;;;;;;;5.70;3.00;;;8.90;68.20;;;;;;4979727;28;20100;-79
2022/03/23 00:05:32;;;;;;;6.50;3.13;;;8.90;68.30;;;;;;4995446;28;20070;-79
2022/03/23 00:08:01;;;;;;;6.25;3.08;;;8.90;68.50;;;;;;4979640;28;20046;-79
2022/03/23 00:10:28;;;;;;;6.82;3.92;;;8.80;68.50;;;;;;4963467;28;20137;-78
2022/03/23 00:12:57;;;;;;;5.07;3.00;;;8.80;68.60;;;;;;4979259;28;20042;-79
2022/03/23 00:15:24;;;;;;;6.22;3.13;;;8.80;68.60;;;;;;4979674;28;20038;-79
2022/03/23 00:17:51;;;;;;;9.27;3.80;;;8.70;68.60;;;;;;4996422;28;20046;-79
2022/03/23 00:20:19;;;;;;;6.10;3.13;;;8.70;68.70;;;;;;5011395;28;20525;-79
2022/03/23 00:22:51;;;;;;;6.17;3.30;;;8.70;68.70;;;;;;4996555;28;20057;-79
2022/03/23 00:25:18;;;;;;;5.63;2.88;;;8.70;68.80;;;;;;4962984;28;20506;-79
2022/03/23 00:27:45;;;;;;;6.75;3.25;;;8.60;68.80;;;;;;4996230;28;20477;-79
2022/03/23 00:30:15;;;;;;;6.93;3.38;;;8.60;68.90;;;;;;4996300;28;20069;-79
2022/03/23 00:32:41;;;;;;;6.70;2.75;;;8.60;68.90;;;;;;4994927;28;20043;-79
2022/03/23 00:35:09;;;;;;;6.22;2.28;;;8.60;68.90;;;;;;4962870;28;20046;-79
2022/03/23 00:37:37;;;;;;;5.90;3.30;;;8.60;69.00;;;;;;4995165;28;20470;-79
2022/03/23 00:40:05;;;;;;;5.95;3.78;;;8.60;69.10;;;;;;4994837;28;20133;-79
2022/03/23 00:42:31;;;;;;;5.95;2.78;;;8.50;69.20;;;;;;4962552;28;20053;-79
2022/03/23 00:44:58;;;;;;;6.07;3.22;;;8.50;69.90;;;;;;4994707;28;20050;-79
2022/03/23 00:47:25;;;;;;;6.30;3.22;;;8.40;69.40;;;;;;4962794;28;20066;-79
2022/03/23 00:49:52;;;;;;;7.03;3.05;;;8.30;69.40;;;;;;4978565;28;20510;-79
2022/03/23 00:52:20;;;;;;;5.60;3.20;;;8.30;69.50;;;;;;4978371;28;20058;-78
2022/03/23 00:54:47;;;;;;;7.00;3.55;;;8.30;69.60;;;;;;4960790;28;20050;-79
2022/03/23 00:57:14;;;;;;;6.80;3.08;;;8.30;69.60;;;;;;4993714;28;20038;-79
2022/03/23 00:59:41;;;;;;;6.75;2.88;;;8.30;69.70;;;;;;4993588;28;20054;-79
2022/03/23 01:02:10;;;;;;;6.80;3.10;;;8.20;69.70;;;;;;4978328;28;20042;-79
2022/03/23 01:04:37;;;;;;;6.95;2.97;;;8.20;70.40;;;;;;4962771;28;20054;-79
2022/03/23 01:07:05;;;;;;;7.47;3.50;;;8.20;69.80;;;;;;4962078;28;20042;-79
2022/03/23 01:09:35;;;;;;;6.60;3.40;;;8.10;69.90;;;;;;4978626;28;20050;-78
2022/03/23 01:12:02;;;;;;;5.10;2.90;;;8.10;70.00;;;;;;4978159;28;20635;-78
2022/03/23 01:14:29;;;;;;;6.45;3.35;;;8.00;70.00;;;;;;4994239;28;20038;-78
2022/03/23 01:16:57;;;;;;;7.00;3.28;;;8.00;70.10;;;;;;4961973;28;20410;-78
2022/03/23 01:19:27;;;;;;;7.30;3.63;;;8.00;70.20;;;;;;4993641;28;20518;-78
2022/03/23 01:21:55;;;;;;;6.07;3.20;;;7.90;70.20;;;;;;4978201;28;20415;-79
2022/03/23 01:24:22;;;;;;;7.03;3.10;;;7.90;70.30;;;;;;4961960;28;20047;-78
2022/03/23 01:26:49;;;;;;;7.30;3.13;;;7.90;70.40;;;;;;4995118;28;20038;-78
2022/03/23 01:29:16;;;;;;;6.30;3.08;;;7.80;70.40;;;;;;4978116;28;20042;-79
2022/03/23 01:31:46;;;;;;;6.57;3.50;;;7.80;70.40;;;;;;4977944;28;20043;-78
2022/03/23 01:34:14;;;;;;;7.25;3.33;;;7.80;70.50;;;;;;4993583;28;20047;-78
2022/03/23 01:36:41;;;;;;;7.22;3.30;;;7.80;70.60;;;;;;4977944;28;20046;-79
2022/03/23 01:39:08;;;;;;;7.97;4.00;;;7.70;70.60;;;;;;4993836;28;20054;-78
2022/03/23 01:41:37;;;;;;;7.00;3.55;;;7.70;70.70;;;;;;4977665;28;20042;-78
2022/03/23 01:44:22;;;;;;;6.85;3.60;;;7.70;70.80;;;;;;4977529;28;20057;-79
2022/03/23 01:47:03;;;;;;;6.15;2.92;;;7.70;70.80;;;;;;4977429;28;20498;-79
2022/03/23 01:49:31;;;;;;;6.82;3.38;;;7.60;70.80;;;;;;4993428;28;20042;-79
2022/03/23 01:51:59;;;;;;;6.68;3.05;;;7.60;70.90;;;;;;4977189;28;20038;-79
2022/03/23 01:54:37;;;;;;;6.35;3.30;;;7.60;71.00;;;;;;4994505;28;20042;-80
2022/03/23 01:57:25;;;;;;;7.05;3.35;;;7.60;71.00;;;;;;4963025;28;20050;-81
2022/03/23 01:59:52;;;;;;;6.68;3.17;;;7.50;71.00;;;;;;4959736;28;20047;-81
2022/03/23 02:02:19;;;;;;;7.80;3.67;;;7.50;71.10;;;;;;4975695;28;20046;-81
2022/03/23 02:04:54;;;;;;;7.30;3.65;;;7.50;71.80;;;;;;4960479;28;20109;-81
2022/03/23 02:07:22;;;;;;;7.00;3.42;;;7.50;71.10;;;;;;4991779;28;20113;-82
2022/03/23 02:09:50;;;;;;;7.65;3.35;;;7.60;71.00;;;;;;4975755;28;20046;-81
2022/03/23 02:12:24;;;;;;;5.57;2.63;;;7.50;70.90;;;;;;4961152;28;20434;-82
2022/03/23 02:14:51;;;;;;;5.18;2.72;;;7.60;70.90;;;;;;4960002;28;20050;-81
2022/03/23 02:17:18;;;;;;;6.97;3.60;;;7.60;70.90;;;;;;4960395;28;20471;-81
2022/03/23 02:19:45;;;;;;;6.30;2.85;;;7.50;70.80;;;;;;4960248;28;20064;-81
2022/03/23 02:22:14;;;;;;;7.15;3.30;;;7.50;70.90;;;;;;4976688;28;20054;-81
2022/03/23 02:24:41;;;;;;;7.22;3.45;;;7.50;71.00;;;;;;4960281;28;20133;-81
2022/03/23 02:27:09;;;;;;;7.93;3.22;;;7.50;71.10;;;;;;4960486;28;20042;-81
2022/03/23 02:29:36;;;;;;;6.43;3.35;;;7.40;71.20;;;;;;4960163;28;20490;-80
2022/03/23 02:32:05;;;;;;;5.55;3.08;;;7.40;71.30;;;;;;4960437;28;20046;-81
2022/03/23 02:34:32;;;;;;;6.40;2.85;;;7.40;71.40;;;;;;4976262;28;20039;-81
2022/03/23 02:36:59;;;;;;;5.97;3.03;;;7.30;71.50;;;;;;4960376;28;20049;-81
2022/03/23 02:39:27;;;;;;;7.28;4.15;;;7.30;71.60;;;;;;4993486;28;20117;-81
2022/03/23 02:41:56;;;;;;;6.55;3.22;;;7.30;71.60;;;;;;4976064;28;20117;-80
2022/03/23 02:44:27;;;;;;;7.05;4.03;;;7.20;71.60;;;;;;4960064;28;20093;-80
2022/03/23 02:46:54;;;;;;;6.93;3.33;;;7.20;71.70;;;;;;4959806;28;20100;-81
2022/03/23 02:49:22;;;;;;;6.75;3.83;;;7.20;71.80;;;;;;4943970;28;20409;-81
2022/03/23 02:51:49;;;;;;;7.70;3.60;;;7.10;71.80;;;;;;4976008;28;20125;-81
2022/03/23 03:03:10;;;;;;;6.40;3.67;;;7.00;72.10;;;;;;4993130;28;20486;-81
2022/03/23 03:05:37;;;;;;;7.50;3.88;;;6.90;72.10;;;;;;4944085;28;20517;-81
2022/03/23 03:10:51;;;;;;;6.97;3.38;;;6.80;72.20;;;;;;4948806;28;20137;-81
2022/03/23 03:13:20;;;;;;;9.50;3.67;;;6.80;72.20;;;;;;4956951;28;20100;-80
2022/03/23 03:15:47;;;;;;;6.75;3.22;;;6.80;72.30;;;;;;4971731;28;20046;-80
2022/03/23 03:18:14;;;;;;;7.28;3.58;;;6.70;72.30;;;;;;4943180;28;20101;-79
2022/03/23 03:20:41;;;;;;;6.28;3.50;;;6.70;72.40;;;;;;4943543;28;20047;-81
2022/03/23 03:23:10;;;;;;;7.47;3.60;;;6.70;72.50;;;;;;4959788;28;20129;-80
2022/03/23 03:25:37;;;;;;;7.53;3.78;;;6.70;72.50;;;;;;4943606;28;20061;-81
2022/03/23 03:28:05;;;;;;;8.25;4.22;;;6.70;72.60;;;;;;4959216;28;20105;-80
2022/03/23 03:30:32;;;;;;;8.38;4.22;;;6.60;72.60;;;;;;4959911;28;20034;-80
2022/03/23 03:32:59;;;;;;;7.88;4.10;;;6.60;72.60;;;;;;4959773;28;20074;-80
2022/03/23 03:35:26;;;;;;;7.47;4.00;;;6.60;72.70;;;;;;4972024;28;20035;-80
2022/03/23 03:37:54;;;;;;;7.60;3.47;;;6.60;72.80;;;;;;4940330;28;20046;-80
2022/03/23 03:40:25;;;;;;;7.10;4.13;;;6.50;72.70;;;;;;4972432;28;20042;-80
2022/03/23 03:42:52;;;;;;;8.45;3.83;;;6.50;72.80;;;;;;4988438;28;20557;-81
2022/03/23 03:45:19;;;;;;;8.95;3.85;;;6.50;72.80;;;;;;4955740;28;20113;-80
2022/03/23 03:47:46;;;;;;;8.40;4.22;;;6.50;72.90;;;;;;4939860;28;20064;-81
2022/03/23 03:50:14;;;;;;;7.72;3.97;;;6.40;72.90;;;;;;4976613;28;20046;-81
2022/03/23 03:52:41;;;;;;;7.15;4.00;;;6.40;72.90;;;;;;4971983;28;20057;-81
2022/03/23 03:55:08;;;;;;;7.65;3.30;;;6.40;73.00;;;;;;4988200;28;20062;-81
2022/03/23 03:57:35;;;;;;;6.13;3.17;;;6.40;73.00;;;;;;4988219;28;20051;-81
2022/03/23 04:00:05;;;;;;;8.57;4.22;;;6.40;73.10;;;;;;4972119;28;20035;-81
2022/03/23 04:02:38;;;;;;;6.95;4.07;;;6.30;73.10;;;;;;4972351;28;20074;-81
2022/03/23 04:05:05;;;;;;;9.10;3.83;;;6.30;73.10;;;;;;4988404;28;20134;-81
2022/03/23 04:07:33;;;;;;;7.40;3.58;;;6.30;73.20;;;;;;4972339;28;20035;-81
2022/03/23 04:10:01;;;;;;;7.63;4.50;;;6.30;73.20;;;;;;4956018;28;20121;-80
2022/03/23 04:12:29;;;;;;;6.80;3.50;;;6.30;73.30;;;;;;4987940;28;20146;-81
2022/03/23 04:14:55;;;;;;;7.32;4.45;;;6.20;73.30;;;;;;5003544;28;20046;-81
2022/03/23 04:17:23;;;;;;;6.05;3.17;;;6.20;73.30;;;;;;4971151;28;20057;-80
2022/03/23 04:19:50;;;;;;;7.25;4.10;;;6.20;73.30;;;;;;4987998;28;20411;-80
2022/03/23 04:22:17;;;;;;;7.35;3.92;;;6.10;73.40;;;;;;4987298;28;20057;-80
2022/03/23 04:24:44;;;;;;;6.45;3.53;;;6.10;73.40;;;;;;5003820;28;20055;-80
2022/03/23 04:27:12;;;;;;;7.53;4.32;;;6.10;73.50;;;;;;4972645;28;20054;-80
2022/03/23 04:29:42;;;;;;;6.75;3.83;;;6.00;73.50;;;;;;4974025;28;20058;-80
2022/03/23 04:32:10;;;;;;;7.75;3.63;;;6.00;73.60;;;;;;4991854;28;20046;-81
2022/03/23 04:34:37;;;;;;;7.55;3.72;;;6.00;73.70;;;;;;4959258;28;20147;-81
2022/03/23 04:37:04;;;;;;;7.85;4.00;;;6.00;73.70;;;;;;4974893;28;20194;-81
2022/03/23 04:39:32;;;;;;;7.80;4.22;;;5.90;73.70;;;;;;4974807;28;20499;-81
2022/03/23 04:42:00;;;;;;;6.43;3.92;;;6.00;73.80;;;;;;5023551;28;20495;-81
2022/03/23 04:44:27;;;;;;;8.57;4.22;;;5.90;73.80;;;;;;4974911;28;20077;-80
2022/03/23 04:46:54;;;;;;;6.00;3.25;;;5.90;73.80;;;;;;4990511;28;20498;-80
2022/03/23 04:49:21;;;;;;;9.15;3.72;;;5.90;73.90;;;;;;5006921;28;20042;-80
2022/03/23 04:51:51;;;;;;;8.52;4.72;;;5.90;73.90;;;;;;4993738;28;20053;-80
2022/03/23 04:54:21;;;;;;;8.13;3.88;;;5.80;73.80;;;;;;4993829;28;20052;-81
2022/03/23 04:56:51;;;;;;;8.70;4.50;;;5.80;73.90;;;;;;4994051;28;20061;-81
2022/03/23 04:59:21;;;;;;;6.93;3.55;;;5.80;73.90;;;;;;4978529;28;20101;-81
2022/03/23 05:01:48;;;;;;;7.38;3.50;;;5.80;73.90;;;;;;4977839;28;20050;-80
2022/03/23 05:04:16;;;;;;;7.97;3.88;;;5.80;73.90;;;;;;4994092;28;20042;-81
2022/03/23 05:06:44;;;;;;;7.60;4.18;;;5.80;74.00;;;;;;4977724;28;20038;-80
2022/03/23 05:09:11;;;;;;;8.50;3.95;;;5.80;74.10;;;;;;4994976;28;20501;-80
2022/03/23 05:11:38;;;;;;;10.52;4.43;;;5.70;74.10;;;;;;4977593;28;20486;-81
2022/03/23 05:14:05;;;;;;;8.07;3.83;;;5.70;74.10;;;;;;5009933;28;20038;-80
2022/03/23 05:16:33;;;;;;;10.18;4.20;;;5.70;74.20;;;;;;4977537;28;20065;-80
2022/03/23 05:19:00;;;;;;;8.23;4.07;;;5.70;74.20;;;;;;4961612;28;20382;-80
2022/03/23 05:21:27;;;;;;;6.60;3.45;;;5.70;74.30;;;;;;4994019;28;20403;-81
2022/03/23 05:23:54;;;;;;;6.57;3.72;;;5.70;74.30;;;;;;4993633;28;20053;-81
2022/03/23 05:26:21;;;;;;;7.78;4.05;;;5.60;74.30;;;;;;4977286;28;20141;-81
2022/03/23 05:28:51;;;;;;;8.27;4.32;;;5.60;74.30;;;;;;4993572;28;20034;-81
2022/03/23 05:31:19;;;;;;;7.05;3.75;;;5.60;74.30;;;;;;4977316;28;20391;-81
2022/03/23 05:33:46;;;;;;;9.13;4.18;;;5.60;74.30;;;;;;4993190;28;20541;-80
2022/03/23 05:36:16;;;;;;;7.28;3.85;;;5.60;74.30;;;;;;4977023;28;20129;-80
2022/03/23 05:38:43;;;;;;;7.25;3.88;;;5.60;74.30;;;;;;4993147;28;20046;-80
2022/03/23 05:41:10;;;;;;;7.43;4.60;;;5.60;74.30;;;;;;4976714;28;20061;-80
2022/03/23 05:43:37;;;;;;;6.95;4.05;;;5.60;74.40;;;;;;4977045;28;20459;-80
2022/03/23 05:46:05;;;;;;;8.20;3.90;;;5.60;74.40;;;;;;4993230;28;20050;-80
2022/03/23 05:48:32;;;;;;;7.22;4.20;;;5.60;74.40;;;;;;4977135;28;20038;-80
2022/03/23 05:51:00;;;;;;;7.70;4.38;;;5.60;74.50;;;;;;4973942;28;20058;-80
2022/03/23 05:53:27;;;;;;;7.35;3.78;;;5.60;74.50;;;;;;4989809;28;20553;-80
2022/03/23 05:55:54;;;;;;;7.57;3.90;;;5.60;74.50;;;;;;4973625;28;20038;-80
2022/03/23 05:58:22;;;;;;;8.40;3.83;;;5.60;74.50;;;;;;4957604;28;20101;-80
2022/03/23 06:00:49;;;;;;;8.45;4.50;;;5.60;74.50;;;;;;4989654;28;20051;-81
2022/03/23 06:03:17;;;;;;;8.30;4.00;;;5.60;74.50;;;;;;4989374;28;20137;-80
2022/03/23 06:05:44;;;;;;;8.13;4.35;;;5.60;74.50;;;;;;4990044;28;20057;-80
2022/03/23 06:08:11;;;;;;;7.63;4.20;;;5.60;74.50;;;;;;4973631;28;20047;-81
2022/03/23 06:10:57;;;;;;;7.07;4.30;;;5.60;74.50;;;;;;4973122;28;20141;-81
2022/03/23 06:13:24;;;;;;;9.65;3.70;;;5.60;74.50;;;;;;5005551;28;20045;-81
2022/03/23 06:15:53;;;;;;;7.97;3.97;;;5.60;74.50;;;;;;5004853;28;20043;-85
2022/03/23 06:18:20;;;;;;;7.55;3.72;;;5.60;74.50;;;;;;4973928;28;20050;-82
2022/03/23 06:20:47;;;;;;;7.95;4.30;;;5.60;74.50;;;;;;4972915;28;20050;-81
2022/03/23 06:23:14;;;;;;;8.35;3.92;;;5.70;74.50;;;;;;4988444;28;20074;-80
2022/03/23 06:25:41;;;;;;;8.65;4.45;;;5.70;74.40;;;;;;4988772;28;20038;-80
2022/03/23 06:28:08;;;;;;;5.60;3.30;;;5.80;74.40;;;;;;4956966;28;20503;-80
2022/03/23 06:30:37;;;;;;;6.78;3.35;;;6.00;74.30;;;;;;4972838;28;20103;-83
2022/03/23 06:33:04;;;;;;;8.65;3.13;;;6.10;74.00;;;;;;4989735;28;20055;-83
2022/03/23 06:35:31;;;;;;;7.60;2.95;;;6.30;73.80;;;;;;4973210;28;20066;-88
2022/03/23 06:37:59;;;;;;;6.32;2.83;;;6.40;73.60;;;;;;4990383;28;20457;-87
2022/03/23 06:40:29;;;;;;;6.63;2.83;;;6.50;73.30;;;;;;4973560;28;20047;-82
2022/03/23 06:42:56;;;;;;;4.97;2.35;;;6.70;73.20;;;;;;5024716;28;20053;-82
2022/03/23 06:45:23;;;;;;;5.20;2.58;;;6.80;73.00;;;;;;4976365;28;20050;-81
2022/03/23 06:47:50;;;;;;;6.72;3.05;;;6.90;72.80;;;;;;4975989;28;20089;-82
2022/03/23 06:50:17;;;;;;;5.30;2.53;;;7.10;72.60;;;;;;4991769;28;20046;-83
2022/03/23 06:52:44;;;;;;;5.88;3.05;;;7.20;72.30;;;;;;4991697;28;20510;-87
2022/03/23 06:55:12;;;;;;;6.38;2.72;;;7.40;72.10;;;;;;4977177;28;20133;-83
2022/03/23 06:57:39;;;;;;;5.95;3.03;;;7.50;71.90;;;;;;4992499;28;20241;-82
2022/03/23 07:00:13;;;;;;;4.80;2.67;;;7.70;71.70;;;;;;4977056;28;20108;-82
2022/03/23 07:02:45;;;;;;;7.25;3.55;;;7.80;71.40;;;;;;4977779;28;20137;-87
2022/03/23 07:05:14;;;;;;;6.22;3.33;;;7.90;71.10;;;;;;4993115;28;20050;-87
2022/03/23 07:09:31;;;;;;;7.22;3.67;;;8.10;70.90;;;;;;4977046;28;20046;-88
2022/03/23 07:10:30;;;;;;;6.35;3.47;;;8.20;70.70;;;;;;4993125;28;20070;-88
2022/03/23 07:12:58;;;;;;;6.07;2.80;;;8.30;70.40;;;;;;4977256;28;20045;-89
2022/03/23 07:15:25;;;;;;;6.35;3.00;;;8.40;70.20;;;;;;4976922;28;20043;-89
2022/03/23 07:17:53;;;;;;;8.32;3.70;;;8.50;70.00;;;;;;4977147;28;20074;-89
2022/03/23 07:20:20;;;;;;;6.63;3.38;;;8.60;69.80;;;;;;4992949;28;20438;-88
2022/03/23 07:22:48;;;;;;;7.13;3.25;;;8.70;69.70;;;;;;4992808;28;20046;-89
2022/03/23 07:25:16;;;;;;;7.90;3.78;;;8.80;69.50;;;;;;4960986;28;20046;-89
2022/03/23 07:27:46;;;;;;;6.93;4.05;;;8.90;69.20;;;;;;4993156;28;20080;-90
2022/03/23 07:30:13;;;;;;;7.28;3.53;;;9.00;69.10;;;;;;4992918;28;20046;-90
2022/03/23 07:32:41;;;;;;;7.28;3.47;;;9.10;68.90;;;;;;4992872;28;20078;-85
2022/03/23 07:35:08;;;;;;;5.65;3.67;;;9.20;68.80;;;;;;4992202;28;20406;-83
2022/03/23 07:37:35;;;;;;;5.53;3.05;;;9.30;68.60;;;;;;4959629;28;20077;-83
2022/03/23 07:40:04;;;;;;;7.15;3.83;;;9.30;68.40;;;;;;4989494;28;20498;-83
2022/03/23 07:42:31;;;;;;;7.40;3.70;;;9.40;68.20;;;;;;4991897;28;20079;-83
2022/03/23 07:44:58;;;;;;;8.02;4.03;;;9.50;68.10;;;;;;4991468;28;20049;-83
2022/03/23 07:47:25;;;;;;;8.30;4.50;;;9.60;68.00;;;;;;4975541;28;20093;-83
2022/03/23 07:49:53;;;;;;;7.88;4.00;;;9.60;67.70;;;;;;4976520;28;20180;-83
2022/03/23 07:52:20;;;;;;;6.25;3.83;;;9.70;67.60;;;;;;4994962;28;20552;-83
2022/03/23 07:54:47;;;;;;;8.73;4.15;;;9.70;67.40;;;;;;4978998;28;20049;-84
2022/03/23 07:57:16;;;;;;;7.45;3.75;;;9.80;67.30;;;;;;4995154;28;20050;-83
2022/03/23 07:59:46;;;;;;;6.68;4.18;;;9.90;67.20;;;;;;5010962;28;20042;-83
2022/03/23 08:02:14;;;;;;;7.97;3.80;;;9.90;67.00;;;;;;4994995;28;20067;-84
2022/03/23 08:04:41;;;;;;;7.38;3.75;;;10.00;66.90;;;;;;4998794;28;20046;-84
2022/03/23 08:07:08;;;;;;;6.43;3.55;;;10.10;66.80;;;;;;4981716;28;20141;-84
2022/03/23 08:09:35;;;;;;;7.18;3.38;;;10.20;66.60;;;;;;4998241;28;20050;-84
2022/03/23 08:12:03;;;;;;;8.48;3.67;;;10.30;66.50;;;;;;4998675;28;20067;-83
2022/03/23 08:14:30;;;;;;;6.38;3.00;;;10.30;66.30;;;;;;4998379;28;20046;-82
2022/03/23 08:16:57;;;;;;;6.07;3.13;;;10.50;66.20;;;;;;4998853;28;20092;-85
2022/03/23 08:19:25;;;;;;;7.63;3.15;;;10.60;66.00;;;;;;5015157;28;20042;-85
2022/03/23 08:21:52;;;;;;;6.38;3.30;;;10.60;65.90;;;;;;5015408;28;20508;-85
2022/03/23 08:24:20;;;;;;;7.05;3.88;;;10.70;65.80;;;;;;4998869;28;20038;-85
2022/03/23 08:26:48;;;;;;;7.13;3.22;;;10.80;65.70;;;;;;4983185;28;20053;-86
2022/03/23 08:29:18;;;;;;;6.70;3.25;;;10.90;65.50;;;;;;4999298;28;20057;-85
2022/03/23 08:31:46;;;;;;;6.35;3.30;;;11.00;65.50;;;;;;4982587;28;20092;-85
2022/03/23 08:34:13;;;;;;;7.93;4.05;;;11.10;65.40;;;;;;5014868;28;20042;-85
2022/03/23 08:36:40;;;;;;;7.65;3.78;;;11.10;65.10;;;;;;5015073;28;20100;-85
2022/03/23 08:39:08;;;;;;;5.75;3.42;;;11.20;65.10;;;;;;4998815;28;20548;-86
2022/03/23 08:41:35;;;;;;;8.05;4.60;;;11.20;64.90;;;;;;5014766;28;20144;-85
2022/03/23 08:44:03;;;;;;;5.93;3.50;;;11.20;64.80;;;;;;4998714;28;20046;-85
2022/03/23 08:46:30;;;;;;;7.25;3.85;;;11.30;64.70;;;;;;4998960;28;20046;-85
2022/03/23 08:48:58;;;;;;;6.53;3.30;;;11.30;64.50;;;;;;4981987;28;20053;-82
2022/03/23 08:51:25;;;;;;;8.07;3.75;;;11.40;64.40;;;;;;4997445;28;20062;-83
2022/03/23 08:53:52;;;;;;;8.52;5.43;;;11.40;64.30;;;;;;5013758;28;20073;-82
2022/03/23 08:56:19;;;;;;;7.82;4.22;;;11.50;64.20;;;;;;5014471;28;20041;-84
2022/03/23 08:58:49;;;;;;;7.50;4.50;;;11.50;64.00;;;;;;4997982;28;20141;-84
2022/03/23 09:01:17;;;;;;;6.68;4.20;;;11.50;63.90;;;;;;4998767;28;20080;-84
2022/03/23 09:03:45;;;;;;;7.97;3.97;;;11.60;63.80;;;;;;5014212;28;20056;-85
2022/03/23 09:06:12;;;;;;;7.95;4.78;;;11.60;63.70;;;;;;4982235;28;20064;-84
2022/03/23 09:08:40;;;;;;;7.78;3.80;;;11.70;63.60;;;;;;5014107;28;20046;-84
2022/03/23 09:11:07;;;;;;;9.07;4.40;;;11.80;63.50;;;;;;5014164;28;20053;-84
2022/03/23 09:13:34;;;;;;;6.80;3.65;;;11.80;63.30;;;;;;5014276;28;20042;-84
2022/03/23 09:16:02;;;;;;;8.63;4.63;;;11.90;63.20;;;;;;4997730;28;20104;-84
2022/03/23 09:18:29;;;;;;;6.93;3.97;;;11.90;63.00;;;;;;4997864;28;20046;-84
2022/03/23 09:20:57;;;;;;;9.35;4.68;;;12.00;62.90;;;;;;5014222;28;20453;-83
2022/03/23 09:23:31;;;;;;;8.43;5.28;;;12.00;62.70;;;;;;5013856;28;20600;-84
2022/03/23 09:26:01;;;;;;;9.57;4.45;;;12.10;62.50;;;;;;4997669;28;20046;-85
2022/03/23 09:28:28;;;;;;;8.57;5.03;;;12.10;62.40;;;;;;5014075;28;20498;-85
2022/03/23 09:30:56;;;;;;;8.40;4.95;;;12.20;62.30;;;;;;5013310;28;20096;-84
2022/03/23 09:33:23;;;;;;;7.32;4.22;;;12.30;62.20;;;;;;4997264;28;20455;-84
2022/03/23 09:35:51;;;;;;;6.57;4.00;;;12.30;62.10;;;;;;4997178;28;20490;-84
2022/03/23 09:38:18;;;;;;;9.43;5.00;;;12.40;62.00;;;;;;4997392;28;20540;-84
2022/03/23 09:40:50;;;;;;;8.13;4.68;;;12.40;61.80;;;;;;4997463;28;20042;-84
2022/03/23 09:43:21;;;;;;;9.10;5.32;;;12.50;61.60;;;;;;4997786;28;20045;-84
2022/03/23 09:45:50;;;;;;;7.73;4.97;;;12.60;61.40;;;;;;5013474;28;20092;-85
2022/03/23 09:48:24;;;;;;;10.00;6.05;;;12.60;61.20;;;;;;5013565;28;20524;-84
2022/03/23 09:50:54;;;;;;;7.72;5.35;;;12.70;61.10;;;;;;5013206;28;20157;-84
2022/03/23 09:53:24;;;;;;;8.63;5.32;;;12.80;60.90;;;;;;5013508;28;20117;-84
2022/03/23 09:55:52;;;;;;;9.48;5.63;;;12.90;60.90;;;;;;5013439;28;20045;-84
2022/03/23 09:58:20;;;;;;;9.98;6.43;;;12.90;60.80;;;;;;4981481;28;20479;-85
2022/03/23 10:00:48;;;;;;;11.25;6.15;;;13.00;60.50;;;;;;4997781;28;20144;-85
2022/03/23 10:03:58;;;;;;;11.80;6.93;;;13.10;60.30;;;;;;4997451;28;20500;-85
2022/03/23 10:06:44;;;;;;;11.93;6.35;;;13.10;60.00;;;;;;4996870;28;20081;-85
2022/03/23 10:09:34;;;;;;;10.70;6.35;;;13.20;59.80;;;;;;5013289;28;20042;-86
2022/03/23 10:12:42;;;;;;;10.50;5.65;;;13.20;59.80;;;;;;5012595;28;20065;-82
2022/03/23 10:15:18;;;;;;;10.90;6.05;;;13.30;59.50;;;;;;5013377;28;20052;-83
2022/03/23 10:17:54;;;;;;;9.43;5.90;;;13.40;59.50;;;;;;5012340;28;20046;-83
2022/03/23 10:20:24;;;;;;;10.35;5.70;;;13.50;59.50;;;;;;4996427;28;20152;-83
2022/03/23 10:22:54;;;;;;;11.50;6.30;;;13.60;59.40;;;;;;5011968;28;20041;-83
2022/03/23 10:25:26;;;;;;;10.93;6.03;;;13.60;59.20;;;;;;5012158;28;20085;-83
2022/03/23 10:27:55;;;;;;;11.68;6.68;;;13.70;58.90;;;;;;4996348;28;20613;-83
2022/03/23 10:30:36;;;;;;;10.48;6.22;;;13.80;58.70;;;;;;4995761;28;20061;-83
2022/03/23 10:33:16;;;;;;;12.43;6.60;;;13.90;58.30;;;;;;4996335;28;20056;-83
2022/03/23 10:35:43;;;;;;;9.65;6.22;;;14.00;58.10;;;;;;4996212;28;20117;-83
2022/03/23 10:38:17;;;;;;;11.77;6.50;;;14.00;57.90;;;;;;4995329;28;20134;-83
2022/03/23 10:40:46;;;;;;;11.65;6.30;;;14.10;58.30;;;;;;5012031;28;20060;-83
2022/03/23 10:43:20;;;;;;;11.38;7.00;;;14.10;57.40;;;;;;5012059;28;20046;-83
2022/03/23 10:45:47;;;;;;;12.50;7.45;;;14.20;57.10;;;;;;5011851;28;20056;-83
2022/03/23 10:48:17;;;;;;;11.82;6.75;;;14.20;56.90;;;;;;4995692;28;20049;-83
2022/03/23 10:50:56;;;;;;;11.57;6.85;;;14.30;56.80;;;;;;5011685;28;20054;-83
2022/03/23 10:53:41;;;;;;;11.32;6.38;;;14.40;56.60;;;;;;5011950;28;20038;-82
2022/03/23 10:56:09;;;;;;;11.32;6.70;;;14.40;56.30;;;;;;4995526;28;20494;-82
2022/03/23 10:58:42;;;;;;;12.55;7.72;;;14.40;56.20;;;;;;4996295;28;20128;-83
2022/03/23 11:01:09;;;;;;;14.40;6.70;;;14.50;56.10;;;;;;4979960;28;20058;-83
2022/03/23 11:03:48;;;;;;;14.02;7.68;;;14.50;56.10;;;;;;5027948;28;20593;-82
2022/03/23 11:06:26;;;;;;;13.88;7.95;;;14.50;56.00;;;;;;5011794;28;20132;-83
2022/03/23 11:15:46;;;;;;;11.35;7.13;;;14.50;56.00;;;;;;5011574;28;20042;-83
2022/03/23 11:17:42;;;;;;;10.98;6.85;;;14.60;55.80;;;;;;4956058;28;20089;-84
2022/03/23 11:20:10;;;;;;;13.95;8.82;;;14.70;55.50;;;;;;4956454;28;20038;-84
2022/03/23 11:22:37;;;;;;;13.10;7.75;;;14.70;55.30;;;;;;4972589;28;20038;-83
2022/03/23 11:25:05;;;;;;;13.43;8.02;;;14.80;55.30;;;;;;4956661;28;20042;-84
2022/03/23 11:27:33;;;;;;;13.43;7.68;;;14.80;55.30;;;;;;4988795;28;20047;-83
2022/03/23 11:30:01;;;;;;;10.70;6.82;;;14.80;55.30;;;;;;4972263;28;20506;-83
2022/03/23 11:32:37;;;;;;;11.52;6.57;;;14.90;55.40;;;;;;4957065;28;20106;-84
2022/03/23 11:35:07;;;;;;;14.02;6.93;;;14.90;55.30;;;;;;4972797;28;20126;-86
2022/03/23 11:37:37;;;;;;;15.20;9.00;;;15.00;55.30;;;;;;4989700;28;20423;-85
2022/03/23 11:40:05;;;;;;;12.43;7.55;;;15.20;54.80;;;;;;4960258;28;20069;-77
2022/03/23 11:42:33;;;;;;;11.73;6.88;;;15.20;54.70;;;;;;4986567;28;20039;-80
2022/03/23 11:45:00;;;;;;;12.25;7.80;;;15.30;54.70;;;;;;4973942;28;20056;-80
2022/03/23 11:47:42;;;;;;;15.82;7.88;;;15.30;54.60;;;;;;4995464;28;20122;-81
2022/03/23 11:50:25;;;;;;;12.07;6.80;;;15.30;54.30;;;;;;5009886;28;20061;-80
2022/03/23 11:53:02;;;;;;;8.75;5.60;;;15.40;54.20;;;;;;4978968;28;20043;-81
2022/03/23 11:55:37;;;;;;;12.43;7.15;;;15.40;54.10;;;;;;4979057;28;20121;-81
2022/03/23 11:58:23;;;;;;;11.43;6.38;;;15.40;54.10;;;;;;4979184;28;20856;-80
2022/03/23 12:01:09;;;;;;;10.98;6.22;;;15.50;54.00;;;;;;4964245;28;20050;-80
2022/03/23 12:03:51;;;;;;;10.38;6.45;;;15.50;54.00;;;;;;4978730;28;20089;-81
2022/03/23 12:06:21;;;;;;;11.32;6.63;;;15.50;54.00;;;;;;4978858;28;20054;-80
2022/03/23 12:08:54;;;;;;;11.35;6.20;;;15.50;54.00;;;;;;4978858;28;20042;-86
2022/03/23 12:11:47;;;;;;;10.27;6.03;;;15.50;53.80;;;;;;4978795;28;20586;-81
2022/03/23 12:14:22;;;;;;;10.05;5.90;;;15.60;53.60;;;;;;4962622;28;20137;-85
2022/03/23 12:16:52;;;;;;;10.20;5.60;;;15.60;53.60;;;;;;4962984;28;20482;-83
2022/03/23 12:20:05;;;;;;;8.30;4.57;;;15.70;53.50;;;;;;4965550;28;20084;-83
2022/03/23 12:22:32;;;;;;;6.65;3.65;;;15.80;53.20;;;;;;4978991;28;20042;-83
2022/03/23 12:25:15;;;;;;;7.22;4.30;;;15.80;53.10;;;;;;4962720;28;20047;-84
2022/03/23 12:27:45;;;;;;;6.75;4.05;;;15.90;52.70;;;;;;4962942;28;20499;-84
2022/03/23 12:30:41;;;;;;;9.35;4.45;;;15.90;52.50;;;;;;4962532;28;20046;-84
2022/03/23 12:33:12;;;;;;;12.93;5.18;;;16.00;51.80;;;;;;4954465;28;20050;-84
2022/03/23 12:35:40;;;;;;;10.40;4.80;;;16.00;51.80;;;;;;4979238;28;20042;-83
2022/03/23 12:38:24;;;;;;;9.63;4.63;;;16.00;51.70;;;;;;4962402;28;20289;-84
2022/03/23 12:41:01;;;;;;;8.68;4.60;;;16.10;51.50;;;;;;4978363;28;20046;-83
2022/03/23 12:43:34;;;;;;;8.75;3.70;;;16.10;51.50;;;;;;4962112;28;20132;-83
2022/03/23 12:46:01;;;;;;;7.25;3.13;;;16.10;51.80;;;;;;4961787;28;20510;-83
2022/03/23 12:59:52;;;;;;;8.85;3.47;;;16.20;50.80;;;;;;4965849;28;20085;-87
2022/03/23 13:02:20;;;;;;;6.70;3.05;;;16.20;50.80;;;;;;4931204;28;20039;-85
2022/03/23 13:04:50;;;;;;;9.20;3.30;;;16.30;50.60;;;;;;4962477;28;20047;-85
2022/03/23 13:07:29;;;;;;;8.00;3.47;;;16.30;50.40;;;;;;4962666;28;20074;-84
2022/03/23 13:10:04;;;;;;;8.95;2.80;;;16.40;50.20;;;;;;4961920;28;20088;-85
2022/03/23 13:12:32;;;;;;;5.18;2.72;;;16.50;50.30;;;;;;4964298;28;20046;-86
2022/03/23 13:15:08;;;;;;;6.82;2.67;;;16.50;50.10;;;;;;4963850;28;20034;-85
2022/03/23 13:17:39;;;;;;;9.15;3.13;;;16.50;50.00;;;;;;4963957;28;20609;-87
2022/03/23 13:20:09;;;;;;;7.88;2.65;;;16.60;49.30;;;;;;4966294;28;20141;-86
2022/03/23 13:22:38;;;;;;;7.60;2.88;;;16.70;49.00;;;;;;4962942;28;20054;-86
2022/03/23 13:25:07;;;;;;;7.63;3.08;;;16.90;48.70;;;;;;4945721;28;20085;-84
2022/03/23 13:27:37;;;;;;;7.70;3.03;;;17.00;48.50;;;;;;4978187;28;20057;-85
2022/03/23 13:30:11;;;;;;;7.65;3.20;;;17.10;48.40;;;;;;4962531;28;20050;-84
2022/03/23 13:32:40;;;;;;;8.15;2.72;;;17.20;48.30;;;;;;4978273;28;20057;-85